Time;durP1;ratioP1;P1;durP2;ratioP2;P2;SDS_P1;SDS_P2;PMS_P1;PMS_P2;Temp;Humidity;BMP_temperature;BMP_pressure;BME280_temperature;BME280_humidity;BME280_pressure;Samples;Min_cycle;Max_cycle;Signal;HPM_P1;HPM_P2
2021/12/18 00:00:30;;;;;;;;;;;0.50;99.90;;;;;;3858527;37;19958;-66
2021/12/18 00:02:57;;;;;;;;;;;0.50;99.90;;;;;;4406824;32;20384;-66
2021/12/18 00:05:23;;;;;;;;;;;0.40;99.90;;;;;;4406029;32;19977;-67
2021/12/18 00:07:49;;;;;;;;;;;0.40;99.90;;;;;;4405921;32;20000;-66
2021/12/18 00:10:20;;;;;;;;;;;0.30;99.90;;;;;;4406711;32;19984;-66
2021/12/18 00:12:50;;;;;;;;;;;0.30;99.90;;;;;;4393144;32;19969;-66
2021/12/18 00:15:17;;;;;;;;;;;0.30;99.90;;;;;;4378278;32;20045;-66
2021/12/18 00:17:43;;;;;;;;;;;0.20;99.90;;;;;;4391183;32;19989;-67
2021/12/18 00:20:10;;;;;;;;;;;0.30;99.90;;;;;;4390673;32;19970;-66
2021/12/18 00:22:36;;;;;;;;;;;0.30;99.90;;;;;;4390409;32;20441;-67
2021/12/18 00:25:03;;;;;;;;;;;0.40;99.90;;;;;;4404582;32;20399;-66
2021/12/18 00:27:29;;;;;;;;;;;0.30;99.90;;;;;;4365530;32;20055;-66
2021/12/18 00:29:55;;;;;;;;;;;0.30;99.90;;;;;;4404715;32;19978;-66
2021/12/18 00:32:22;;;;;;;;;;;0.30;99.90;;;;;;4391826;32;19973;-67
2021/12/18 00:34:48;;;;;;;;;;;0.30;99.90;;;;;;4408684;32;20408;-66
2021/12/18 00:37:14;;;;;;;;;;;0.40;99.90;;;;;;4381863;32;20367;-67
2021/12/18 00:39:49;;;;;;;;;;;0.50;99.90;;;;;;4390886;32;20001;-66
2021/12/18 00:42:43;;;;;;;;;;;0.50;99.90;;;;;;4391496;32;20061;-67
2021/12/18 00:45:12;;;;;;;;;;;0.50;99.90;;;;;;4377825;32;19982;-66
2021/12/18 00:47:39;;;;;;;;;;;0.50;99.90;;;;;;4390187;32;19978;-67
2021/12/18 00:50:06;;;;;;;;;;;0.50;99.90;;;;;;4390180;32;20409;-66
2021/12/18 00:52:33;;;;;;;;;;;0.50;99.90;;;;;;4377744;32;19997;-67
2021/12/18 00:54:59;;;;;;;;;;;0.50;99.90;;;;;;4390101;32;20423;-67
2021/12/18 00:57:25;;;;;;;;;;;0.40;99.90;;;;;;4390435;32;19966;-66
2021/12/18 00:59:54;;;;;;;;;;;0.30;99.90;;;;;;4377915;32;20477;-66
2021/12/18 01:02:20;;;;;;;;;;;0.30;99.90;;;;;;4377778;32;19976;-66
2021/12/18 01:04:46;;;;;;;;;;;0.30;99.90;;;;;;4390110;32;19996;-66
2021/12/18 01:07:12;;;;;;;;;;;0.40;99.90;;;;;;4390283;32;20420;-66
2021/12/18 01:09:58;;;;;;;;;;;0.40;99.90;;;;;;4377263;32;19977;-66
2021/12/18 01:12:29;;;;;;;;;;;0.40;99.90;;;;;;4380165;32;19974;-66
2021/12/18 01:23:10;;;;;;;;;;;0.30;99.90;;;;;;4381975;32;20008;-65
2021/12/18 01:25:37;;;;;;;;;;;0.30;99.90;;;;;;4379732;32;19992;-67
2021/12/18 01:28:03;;;;;;;;;;;0.30;99.90;;;;;;4367587;32;19992;-66
2021/12/18 01:30:29;;;;;;;;;;;0.40;99.90;;;;;;4370466;32;19981;-67
2021/12/18 01:36:00;;;;;;;;;;;0.50;99.90;;;;;;3858370;37;19958;-65
2021/12/18 01:38:29;;;;;;;;;;;0.40;99.90;;;;;;4394546;32;19971;-67
2021/12/18 01:40:56;;;;;;;;;;;0.40;99.90;;;;;;4419328;32;20365;-67
2021/12/18 01:46:29;;;;;;;;;;;0.30;99.90;;;;;;4420414;32;19978;-66
2021/12/18 01:52:01;;;;;;;;;;;0.40;99.90;;;;;;4390730;32;19984;-66
2021/12/18 01:54:27;;;;;;;;;;;0.30;99.90;;;;;;4407637;32;20403;-66
2021/12/18 01:56:53;;;;;;;;;;;0.30;99.90;;;;;;4405986;32;20399;-67
2021/12/18 01:59:49;;;;;;;;;;;0.40;99.90;;;;;;4393179;32;19993;-67
2021/12/18 02:02:16;;;;;;;;;;;0.30;99.90;;;;;;4403508;32;20059;-66
2021/12/18 02:04:42;;;;;;;;;;;0.30;99.90;;;;;;4418067;32;20371;-66
2021/12/18 02:07:09;;;;;;;;;;;0.30;99.90;;;;;;4418401;32;20069;-66
2021/12/18 02:09:55;;;;;;;;;;;0.30;99.90;;;;;;4405555;32;20438;-66
2021/12/18 02:12:26;;;;;;;;;;;0.20;99.90;;;;;;4418624;32;19977;-66
2021/12/18 02:20:37;;;;;;;;;;;0.30;99.90;;;;;;4390510;32;19966;-67
2021/12/18 02:23:04;;;;;;;;;;;0.20;99.90;;;;;;4379987;32;19994;-66
2021/12/18 02:25:32;;;;;;;;;;;0.30;99.90;;;;;;4377704;32;20441;-66
2021/12/18 02:27:59;;;;;;;;;;;0.20;99.90;;;;;;4390467;32;20009;-66
2021/12/18 02:30:25;;;;;;;;;;;0.20;99.90;;;;;;4390404;32;19989;-67
2021/12/18 02:32:52;;;;;;;;;;;0.20;99.90;;;;;;4404208;32;19977;-67
2021/12/18 02:35:27;;;;;;;;;;;0.00;99.90;;;;;;4390335;32;20001;-66
2021/12/18 02:38:12;;;;;;;;;;;0.10;99.90;;;;;;4377551;32;20372;-67
2021/12/18 02:43:40;;;;;;;;;;;0.30;99.90;;;;;;4379039;32;20387;-66
2021/12/18 02:48:41;;;;;;;;;;;0.30;99.90;;;;;;3857622;37;19949;-67
2021/12/18 02:51:09;;;;;;;;;;;0.30;99.90;;;;;;4406081;32;19981;-66
2021/12/18 02:53:37;;;;;;;;;;;0.30;99.90;;;;;;4393628;32;19984;-66
2021/12/18 02:56:05;;;;;;;;;;;0.20;99.90;;;;;;4419922;32;20058;-66
2021/12/18 02:58:39;;;;;;;;;;;0.20;99.90;;;;;;4393369;32;19981;-66
2021/12/18 03:01:07;;;;;;;;;;;0.30;99.90;;;;;;4409946;32;20062;-68
2021/12/18 03:03:36;;;;;;;;;;;0.40;99.90;;;;;;4395735;32;19988;-65
2021/12/18 03:06:42;;;;;;;;;;;0.40;99.90;;;;;;4427157;32;19977;-67
2021/12/18 03:22:50;;;;;;;;;;;0.40;99.90;;;;;;4404805;32;19982;-67
2021/12/18 03:25:18;;;;;;;;;;;0.40;99.90;;;;;;4404696;32;19986;-65
2021/12/18 03:27:45;;;;;;;;;;;0.40;99.90;;;;;;4403479;32;20046;-67
2021/12/18 03:30:12;;;;;;;;;;;0.50;99.90;;;;;;4390176;32;19966;-67
2021/12/18 03:32:38;;;;;;;;;;;0.50;99.90;;;;;;4404578;32;19989;-67
2021/12/18 03:35:06;;;;;;;;;;;0.60;99.90;;;;;;4404342;32;19993;-67
2021/12/18 03:37:34;;;;;;;;;;;0.40;99.90;;;;;;4390021;32;20363;-66
2021/12/18 03:40:01;;;;;;;;;;;0.50;99.90;;;;;;4402881;32;19988;-67
2021/12/18 03:42:27;;;;;;;;;;;0.50;99.90;;;;;;4404264;32;20419;-66
2021/12/18 03:44:53;;;;;;;;;;;0.30;99.90;;;;;;4404413;32;19993;-67
2021/12/18 03:47:19;;;;;;;;;;;0.20;99.90;;;;;;4390509;32;19992;-66
2021/12/18 03:49:45;;;;;;;;;;;0.30;99.90;;;;;;4404657;32;20056;-66
2021/12/18 03:52:12;;;;;;;;;;;0.10;99.90;;;;;;4404263;32;20012;-66
2021/12/18 03:54:38;;;;;;;;;;;0.10;99.90;;;;;;4403237;32;20000;-66
2021/12/18 03:57:04;;;;;;;;;;;0.10;99.90;;;;;;4406577;32;20004;-66
2021/12/18 03:59:31;;;;;;;;;;;0.30;99.90;;;;;;4397031;32;19981;-65
2021/12/18 04:01:57;;;;;;;;;;;0.50;99.90;;;;;;4393944;32;20044;-66
2021/12/18 04:04:23;;;;;;;;;;;0.30;99.90;;;;;;4379838;32;19978;-67
2021/12/18 04:06:50;;;;;;;;;;;0.00;99.90;;;;;;4380460;32;19978;-66
2021/12/18 04:09:16;;;;;;;;;;;0.10;99.90;;;;;;4380014;32;20023;-66
2021/12/18 04:11:42;;;;;;;;;;;0.10;99.90;;;;;;4379760;32;20391;-66
2021/12/18 04:14:10;;;;;;;;;;;0.10;99.90;;;;;;4393362;32;20037;-66
2021/12/18 04:16:37;;;;;;;;;;;0.00;99.90;;;;;;4379924;32;20130;-66
2021/12/18 04:19:04;;;;;;;;;;;0.00;99.90;;;;;;4394005;32;19987;-66
2021/12/18 04:21:31;;;;;;;;;;;0.00;99.90;;;;;;4393841;32;19974;-67
2021/12/18 04:23:58;;;;;;;;;;;0.00;99.90;;;;;;4380208;32;19978;-66
2021/12/18 04:26:24;;;;;;;;;;;0.00;99.90;;;;;;4393117;32;19982;-67
2021/12/18 04:28:50;;;;;;;;;;;0.00;99.90;;;;;;4379354;32;19981;-66
2021/12/18 04:31:17;;;;;;;;;;;0.00;99.90;;;;;;4392678;32;19982;-67
2021/12/18 04:33:43;;;;;;;;;;;0.00;99.90;;;;;;4379543;32;19997;-66
2021/12/18 04:36:09;;;;;;;;;;;0.00;99.90;;;;;;4380028;32;19989;-66
2021/12/18 04:38:36;;;;;;;;;;;0.10;99.90;;;;;;4393889;32;19993;-66
2021/12/18 04:41:04;;;;;;;;;;;0.00;99.90;;;;;;4398456;32;19974;-66
2021/12/18 04:43:30;;;;;;;;;;;-0.10;99.90;;;;;;4380291;32;19998;-65
2021/12/18 04:45:56;;;;;;;;;;;0.00;99.90;;;;;;4379344;32;20031;-67
2021/12/18 04:48:22;;;;;;;;;;;0.00;99.90;;;;;;4379416;32;19977;-66
2021/12/18 04:50:49;;;;;;;;;;;-0.20;99.90;;;;;;4391742;32;19997;-67
2021/12/18 04:53:15;;;;;;;;;;;-0.30;99.90;;;;;;4393208;32;20001;-66
2021/12/18 04:55:42;;;;;;;;;;;-0.30;99.90;;;;;;4379208;32;20009;-67
2021/12/18 04:58:08;;;;;;;;;;;-0.20;99.90;;;;;;4393554;32;19965;-66
2021/12/18 05:00:39;;;;;;;;;;;-0.30;99.90;;;;;;4392097;32;20408;-66
2021/12/18 05:03:07;;;;;;;;;;;-0.20;99.90;;;;;;4393564;32;20351;-65
2021/12/18 05:05:34;;;;;;;;;;;-0.20;99.90;;;;;;4393080;32;20062;-66
2021/12/18 05:08:01;;;;;;;;;;;-0.20;99.90;;;;;;4379057;32;19981;-66
2021/12/18 05:10:28;;;;;;;;;;;-0.30;99.90;;;;;;4378225;32;20004;-66
2021/12/18 05:12:54;;;;;;;;;;;-0.20;99.90;;;;;;4378741;32;20375;-66
2021/12/18 05:15:20;;;;;;;;;;;-0.20;99.90;;;;;;4393221;32;20004;-69
2021/12/18 05:17:46;;;;;;;;;;;-0.20;99.90;;;;;;4378749;32;19982;-64
2021/12/18 05:20:12;;;;;;;;;;;-0.20;99.90;;;;;;4378844;32;19977;-66
2021/12/18 05:22:38;;;;;;;;;;;-0.20;99.90;;;;;;4378713;32;19990;-66
2021/12/18 05:25:06;;;;;;;;;;;-0.10;99.90;;;;;;4379876;32;20414;-66
2021/12/18 05:27:32;;;;;;;;;;;-0.20;99.90;;;;;;4381568;32;19978;-66
2021/12/18 05:29:59;;;;;;;;;;;-0.20;99.90;;;;;;4379178;32;20530;-66
2021/12/18 05:32:25;;;;;;;;;;;-0.20;99.90;;;;;;4378762;32;20065;-65
2021/12/18 05:34:51;;;;;;;;;;;-0.30;99.90;;;;;;4379348;32;19977;-65
2021/12/18 05:37:32;;;;;;;;;;;-0.20;99.90;;;;;;4379227;32;19974;-66
2021/12/18 05:39:59;;;;;;;;;;;-0.20;99.90;;;;;;4385062;32;19962;-66
2021/12/18 05:42:25;;;;;;;;;;;-0.10;99.90;;;;;;4378658;32;19989;-67
2021/12/18 05:44:51;;;;;;;;;;;-0.20;99.90;;;;;;4378639;32;19989;-66
2021/12/18 05:47:19;;;;;;;;;;;-0.20;99.90;;;;;;4365496;32;20359;-65
2021/12/18 05:49:45;;;;;;;;;;;-0.20;99.90;;;;;;4392548;32;19978;-67
2021/12/18 05:52:11;;;;;;;;;;;-0.20;99.90;;;;;;4379448;32;19982;-66
2021/12/18 05:54:38;;;;;;;;;;;-0.10;99.90;;;;;;4392670;32;20059;-65
2021/12/18 05:57:05;;;;;;;;;;;0.00;99.90;;;;;;4390686;32;19979;-67
2021/12/18 05:59:32;;;;;;;;;;;0.00;99.90;;;;;;4365515;32;20402;-65
2021/12/18 06:01:58;;;;;;;;;;;0.00;99.90;;;;;;4391968;32;19969;-66
2021/12/18 06:04:25;;;;;;;;;;;0.00;99.90;;;;;;4378034;32;20006;-66
2021/12/18 06:06:51;;;;;;;;;;;0.00;99.90;;;;;;4391087;32;19962;-66
2021/12/18 06:09:17;;;;;;;;;;;-0.10;99.90;;;;;;4392505;32;20406;-67
2021/12/18 06:11:43;;;;;;;;;;;-0.10;99.90;;;;;;4378578;32;20476;-66
2021/12/18 06:14:09;;;;;;;;;;;-0.10;99.90;;;;;;4391918;32;20464;-66
2021/12/18 06:16:36;;;;;;;;;;;-0.10;99.90;;;;;;4377975;32;19997;-67
2021/12/18 06:19:02;;;;;;;;;;;-0.10;99.90;;;;;;4377877;32;19993;-66
2021/12/18 06:21:28;;;;;;;;;;;0.00;99.90;;;;;;4390256;32;19962;-68
2021/12/18 06:23:55;;;;;;;;;;;0.00;99.90;;;;;;4391966;32;19973;-67
2021/12/18 06:26:22;;;;;;;;;;;0.00;99.90;;;;;;4378241;32;19986;-66
2021/12/18 06:28:49;;;;;;;;;;;-0.10;99.90;;;;;;4391695;32;20070;-66
2021/12/18 06:31:15;;;;;;;;;;;0.00;99.90;;;;;;4377807;32;19973;-70
2021/12/18 06:33:41;;;;;;;;;;;0.00;99.90;;;;;;4377797;32;19996;-67
2021/12/18 06:36:08;;;;;;;;;;;0.00;99.90;;;;;;4391773;32;19985;-69
2021/12/18 06:38:34;;;;;;;;;;;0.10;99.90;;;;;;4377826;32;19989;-69
2021/12/18 06:41:00;;;;;;;;;;;0.20;99.90;;;;;;4390451;32;20054;-66
2021/12/18 06:43:26;;;;;;;;;;;0.10;99.90;;;;;;4391599;32;19984;-67
2021/12/18 06:45:52;;;;;;;;;;;0.00;99.90;;;;;;4377650;32;19985;-69
2021/12/18 06:48:18;;;;;;;;;;;0.20;99.90;;;;;;4364916;32;20001;-67
2021/12/18 06:50:45;;;;;;;;;;;0.20;99.90;;;;;;4390571;32;20387;-66
2021/12/18 06:53:11;;;;;;;;;;;0.20;99.90;;;;;;4365387;32;20081;-67
2021/12/18 06:55:37;;;;;;;;;;;0.20;99.90;;;;;;4391539;32;19985;-67
2021/12/18 06:58:04;;;;;;;;;;;0.40;99.90;;;;;;4374966;32;19974;-68
2021/12/18 07:00:30;;;;;;;;;;;0.20;99.90;;;;;;4378919;32;19982;-69
2021/12/18 07:02:56;;;;;;;;;;;0.20;99.90;;;;;;4362894;32;19974;-67
2021/12/18 07:05:22;;;;;;;;;;;0.10;99.90;;;;;;4371848;32;20066;-67
2021/12/18 07:07:50;;;;;;;;;;;0.10;99.90;;;;;;4375937;32;19978;-67
2021/12/18 07:10:18;;;;;;;;;;;0.10;99.90;;;;;;4391440;32;20392;-67
2021/12/18 07:12:44;;;;;;;;;;;0.00;99.90;;;;;;4377720;32;19991;-69
2021/12/18 07:15:12;;;;;;;;;;;0.00;99.90;;;;;;4365110;32;19990;-68
2021/12/18 07:17:39;;;;;;;;;;;0.00;99.90;;;;;;4377774;32;20051;-67
2021/12/18 07:20:07;;;;;;;;;;;0.00;99.90;;;;;;4369258;32;20054;-68
2021/12/18 07:22:33;;;;;;;;;;;0.10;99.90;;;;;;4379016;32;20008;-68
2021/12/18 07:24:59;;;;;;;;;;;0.00;99.90;;;;;;4377748;32;19981;-68
2021/12/18 07:27:25;;;;;;;;;;;0.00;99.90;;;;;;4365515;32;19970;-68
2021/12/18 07:29:52;;;;;;;;;;;0.00;99.90;;;;;;4364949;32;19977;-66
2021/12/18 07:32:18;;;;;;;;;;;0.10;99.90;;;;;;4377608;32;19985;-67
2021/12/18 07:34:44;;;;;;;;;;;0.10;99.90;;;;;;4366946;32;20005;-68
2021/12/18 07:37:10;;;;;;;;;;;0.10;99.90;;;;;;4380101;32;20440;-70
2021/12/18 07:39:36;;;;;;;;;;;0.10;99.90;;;;;;4368047;32;20051;-69
2021/12/18 07:42:03;;;;;;;;;;;0.10;99.90;;;;;;4393979;32;20395;-71
2021/12/18 07:44:29;;;;;;;;;;;0.10;99.90;;;;;;4394364;32;20035;-68
2021/12/18 07:46:56;;;;;;;;;;;-0.10;99.90;;;;;;4394167;32;19985;-67
2021/12/18 07:49:22;;;;;;;;;;;0.00;99.90;;;;;;4400392;32;20371;-70
2021/12/18 07:51:48;;;;;;;;;;;0.00;99.90;;;;;;4395283;32;19996;-70
2021/12/18 07:54:14;;;;;;;;;;;0.00;99.90;;;;;;4394294;32;20196;-66
2021/12/18 07:56:40;;;;;;;;;;;0.00;99.90;;;;;;4394169;32;19982;-68
2021/12/18 07:59:06;;;;;;;;;;;-0.10;99.90;;;;;;4379927;32;20065;-69
2021/12/18 08:01:33;;;;;;;;;;;0.00;99.90;;;;;;4394416;32;20004;-70
2021/12/18 08:04:01;;;;;;;;;;;-0.10;99.90;;;;;;4394140;32;20000;-68
2021/12/18 08:06:28;;;;;;;;;;;-0.10;99.90;;;;;;4379939;32;19981;-68
2021/12/18 08:08:54;;;;;;;;;;;-0.10;99.90;;;;;;4367499;32;20381;-69
2021/12/18 08:11:20;;;;;;;;;;;-0.20;99.90;;;;;;4380272;32;19966;-70
2021/12/18 08:13:46;;;;;;;;;;;-0.10;99.90;;;;;;4393733;32;20405;-68
2021/12/18 08:16:12;;;;;;;;;;;-0.20;99.90;;;;;;4393909;32;19992;-71
2021/12/18 08:18:39;;;;;;;;;;;-0.10;99.90;;;;;;4393875;32;20062;-72
2021/12/18 08:21:05;;;;;;;;;;;-0.10;99.90;;;;;;4379485;32;20419;-71
2021/12/18 08:23:31;;;;;;;;;;;0.00;99.90;;;;;;4379884;32;20049;-71
2021/12/18 08:25:57;;;;;;;;;;;0.00;99.90;;;;;;4379833;32;19993;-72
2021/12/18 08:28:23;;;;;;;;;;;-0.10;99.90;;;;;;4393483;32;20005;-71
2021/12/18 08:30:50;;;;;;;;;;;-0.10;99.90;;;;;;4393385;32;19976;-70
2021/12/18 08:33:16;;;;;;;;;;;0.00;99.90;;;;;;4392001;32;20366;-71
2021/12/18 08:35:42;;;;;;;;;;;0.00;99.90;;;;;;4379607;32;19981;-69
2021/12/18 08:38:08;;;;;;;;;;;0.00;99.90;;;;;;4393503;32;19978;-65
2021/12/18 08:40:35;;;;;;;;;;;0.00;99.90;;;;;;4366704;32;20420;-66
2021/12/18 08:43:02;;;;;;;;;;;0.00;99.90;;;;;;4379787;32;20004;-66
2021/12/18 08:45:29;;;;;;;;;;;0.10;99.90;;;;;;4379682;32;19970;-64
2021/12/18 08:47:55;;;;;;;;;;;-0.10;99.90;;;;;;4361523;32;20001;-67
2021/12/18 08:50:24;;;;;;;;;;;0.00;99.90;;;;;;4350259;32;19982;-66
2021/12/18 08:52:51;;;;;;;;;;;-0.10;99.90;;;;;;4361642;32;19993;-67
2021/12/18 08:55:18;;;;;;;;;;;0.00;99.90;;;;;;4349475;32;19986;-66
2021/12/18 08:57:44;;;;;;;;;;;-0.10;99.90;;;;;;4362494;32;19986;-66
2021/12/18 09:00:14;;;;;;;;;;;-0.10;99.90;;;;;;4362125;32;19990;-64
2021/12/18 09:02:40;;;;;;;;;;;0.00;99.90;;;;;;4365534;32;20063;-68
2021/12/18 09:05:08;;;;;;;;;;;-0.10;99.90;;;;;;4359653;32;19966;-69
2021/12/18 09:07:34;;;;;;;;;;;0.00;99.90;;;;;;4362003;32;19982;-70
2021/12/18 09:10:01;;;;;;;;;;;0.00;99.90;;;;;;4363038;32;19986;-68
2021/12/18 09:12:27;;;;;;;;;;;0.00;99.90;;;;;;4363309;32;20000;-69
2021/12/18 09:14:53;;;;;;;;;;;-0.10;99.90;;;;;;4349111;32;19974;-69
2021/12/18 09:17:19;;;;;;;;;;;-0.10;99.90;;;;;;4373737;32;20051;-66
2021/12/18 09:19:46;;;;;;;;;;;0.10;99.90;;;;;;4361333;32;20080;-67
2021/12/18 09:22:12;;;;;;;;;;;0.10;99.90;;;;;;4361594;32;19982;-70
2021/12/18 09:24:38;;;;;;;;;;;0.10;99.90;;;;;;4363867;32;20006;-69
2021/12/18 09:27:05;;;;;;;;;;;0.10;99.90;;;;;;4361073;32;20045;-69
2021/12/18 09:29:32;;;;;;;;;;;0.10;99.90;;;;;;4361670;32;20004;-66
2021/12/18 09:31:58;;;;;;;;;;;-0.10;99.90;;;;;;4361054;32;19985;-68
2021/12/18 09:34:27;;;;;;;;;;;-0.10;99.90;;;;;;4361314;32;20009;-67
2021/12/18 09:36:53;;;;;;;;;;;-0.10;99.90;;;;;;4360914;32;20490;-66
2021/12/18 09:39:20;;;;;;;;;;;-0.30;99.90;;;;;;4361263;32;20017;-68
2021/12/18 09:41:49;;;;;;;;;;;-0.30;99.90;;;;;;4363047;32;20421;-68
2021/12/18 09:44:24;;;;;;;;;;;-0.30;99.90;;;;;;4362186;32;19990;-67
2021/12/18 09:46:51;;;;;;;;;;;-0.30;99.90;;;;;;4363373;32;19981;-67
2021/12/18 09:49:17;;;;;;;;;;;-0.30;99.90;;;;;;4378137;32;19978;-68
2021/12/18 09:51:43;;;;;;;;;;;-0.30;99.90;;;;;;4363423;32;20021;-68
2021/12/18 09:54:09;;;;;;;;;;;-0.30;99.90;;;;;;4376898;32;20059;-70
2021/12/18 09:56:36;;;;;;;;;;;-0.40;99.90;;;;;;4378098;32;20417;-69
2021/12/18 09:59:02;;;;;;;;;;;-0.30;99.90;;;;;;4364692;32;20450;-68
2021/12/18 10:01:29;;;;;;;;;;;-0.40;99.90;;;;;;4378351;32;20045;-69
2021/12/18 10:03:58;;;;;;;;;;;-0.40;99.90;;;;;;4377379;32;20412;-70
2021/12/18 10:06:38;;;;;;;;;;;-0.40;99.90;;;;;;4376653;32;20381;-69
2021/12/18 10:09:28;;;;;;;;;;;-0.30;99.90;;;;;;4377190;32;20427;-69
2021/12/18 10:12:04;;;;;;;;;;;-0.40;99.90;;;;;;4377209;32;20361;-69
2021/12/18 10:14:42;;;;;;;;;;;-0.40;99.90;;;;;;4364620;32;20046;-71
2021/12/18 10:17:33;;;;;;;;;;;-0.40;99.90;;;;;;4377479;32;19962;-69
2021/12/18 10:20:11;;;;;;;;;;;-0.40;99.90;;;;;;4364628;32;19969;-69
2021/12/18 10:22:51;;;;;;;;;;;-0.40;99.90;;;;;;4379113;32;20056;-69
2021/12/18 10:25:40;;;;;;;;;;;-0.40;99.90;;;;;;4366124;32;19985;-69
2021/12/18 10:28:21;;;;;;;;;;;-0.40;99.90;;;;;;4378400;32;19977;-67
2021/12/18 10:30:53;;;;;;;;;;;-0.30;99.90;;;;;;4365425;32;20431;-68
2021/12/18 10:33:27;;;;;;;;;;;-0.30;99.90;;;;;;4375505;32;20057;-69
2021/12/18 10:35:59;;;;;;;;;;;-0.40;99.90;;;;;;4364044;32;19997;-69
2021/12/18 10:38:45;;;;;;;;;;;-0.40;99.90;;;;;;4363057;32;20456;-69
2021/12/18 10:41:22;;;;;;;;;;;-0.40;99.90;;;;;;4377389;32;19993;-69
2021/12/18 10:44:04;;;;;;;;;;;-0.50;99.90;;;;;;4367072;32;19998;-70
2021/12/18 10:46:31;;;;;;;;;;;-0.50;99.90;;;;;;4376706;32;20022;-69
2021/12/18 10:49:01;;;;;;;;;;;-0.40;99.90;;;;;;4391999;32;19992;-69
2021/12/18 10:51:30;;;;;;;;;;;-0.30;99.90;;;;;;4377834;32;19974;-68
2021/12/18 10:54:02;;;;;;;;;;;-0.50;99.90;;;;;;4365465;32;20046;-70
2021/12/18 10:56:38;;;;;;;;;;;-0.50;99.90;;;;;;4378672;32;20097;-68
2021/12/18 10:59:07;;;;;;;;;;;-0.50;99.90;;;;;;4374102;32;19976;-69
2021/12/18 11:01:36;;;;;;;;;;;-0.50;99.90;;;;;;4378082;32;20003;-68
2021/12/18 11:04:03;;;;;;;;;;;-0.40;99.90;;;;;;4377863;32;19987;-69
2021/12/18 11:06:32;;;;;;;;;;;-0.40;99.90;;;;;;4365089;32;20383;-68
2021/12/18 11:09:05;;;;;;;;;;;-0.50;99.90;;;;;;4380309;32;19997;-69
2021/12/18 11:14:39;;;;;;;;;;;-0.50;99.90;;;;;;4383088;32;20352;-69
2021/12/18 11:17:11;;;;;;;;;;;-0.40;99.90;;;;;;4368842;32;19972;-69
2021/12/18 11:19:39;;;;;;;;;;;-0.40;99.90;;;;;;4368274;32;20391;-70
2021/12/18 11:22:10;;;;;;;;;;;-0.50;99.90;;;;;;4368201;32;19994;-68
2021/12/18 11:24:44;;;;;;;;;;;-0.50;99.90;;;;;;4367981;32;20054;-69
2021/12/18 11:27:11;;;;;;;;;;;-0.50;99.90;;;;;;4394470;32;20046;-69
2021/12/18 11:29:46;;;;;;;;;;;-0.50;99.90;;;;;;4368393;32;20080;-67
2021/12/18 11:32:20;;;;;;;;;;;-0.60;99.90;;;;;;4395003;32;19970;-67
2021/12/18 11:34:48;;;;;;;;;;;-0.60;99.90;;;;;;4368469;32;19991;-69
2021/12/18 11:37:16;;;;;;;;;;;-0.50;99.90;;;;;;4394523;32;20250;-69
2021/12/18 11:39:44;;;;;;;;;;;-0.50;99.90;;;;;;4355484;32;20049;-68
2021/12/18 11:42:11;;;;;;;;;;;-0.50;99.90;;;;;;4380102;32;20503;-69
2021/12/18 11:44:40;;;;;;;;;;;-0.50;99.90;;;;;;4368072;32;19973;-68
2021/12/18 11:47:30;;;;;;;;;;;-0.60;99.90;;;;;;4379863;32;20070;-68
2021/12/18 11:50:06;;;;;;;;;;;-0.60;99.90;;;;;;4380058;32;20045;-68
2021/12/18 11:52:53;;;;;;;;;;;-0.60;99.90;;;;;;4394211;32;20062;-69
2021/12/18 11:55:20;;;;;;;;;;;-0.60;99.90;;;;;;4394503;32;20062;-69
2021/12/18 11:57:51;;;;;;;;;;;-0.70;99.90;;;;;;4379918;32;19977;-68
2021/12/18 12:00:17;;;;;;;;;;;-0.70;99.90;;;;;;4394066;32;19970;-69
2021/12/18 12:02:55;;;;;;;;;;;-0.70;99.90;;;;;;4380292;32;19978;-70
2021/12/18 12:05:45;;;;;;;;;;;-0.70;99.90;;;;;;4367635;32;19965;-69
2021/12/18 12:08:38;;;;;;;;;;;-0.80;99.90;;;;;;4379903;32;19993;-66
2021/12/18 12:11:26;;;;;;;;;;;-0.70;99.90;;;;;;4379936;32;19973;-68
2021/12/18 12:14:00;;;;;;;;;;;-0.80;99.90;;;;;;4367594;32;19973;-71
2021/12/18 12:16:47;;;;;;;;;;;-0.80;99.90;;;;;;4380269;32;19970;-69
2021/12/18 12:19:15;;;;;;;;;;;-0.80;99.90;;;;;;4366801;32;20050;-67
2021/12/18 12:21:55;;;;;;;;;;;-0.80;99.90;;;;;;4367101;32;20072;-70
2021/12/18 12:24:33;;;;;;;;;;;-0.70;99.90;;;;;;4368061;32;19970;-67
2021/12/18 12:27:24;;;;;;;;;;;-0.80;99.90;;;;;;4371015;32;19982;-69
2021/12/18 12:29:51;;;;;;;;;;;-0.80;99.90;;;;;;4379455;32;19993;-70
2021/12/18 12:32:20;;;;;;;;;;;-0.80;99.90;;;;;;4383248;32;19969;-69
2021/12/18 12:35:10;;;;;;;;;;;-0.80;99.90;;;;;;4383231;32;20066;-68
2021/12/18 12:37:46;;;;;;;;;;;-0.80;99.90;;;;;;4368667;32;20055;-68
2021/12/18 12:40:20;;;;;;;;;;;-0.80;99.90;;;;;;4367383;32;20411;-68
2021/12/18 12:43:15;;;;;;;;;;;-0.90;99.90;;;;;;4380646;32;19981;-67
2021/12/18 12:45:44;;;;;;;;;;;-0.90;99.90;;;;;;4379505;32;20464;-68
2021/12/18 12:48:13;;;;;;;;;;;-0.80;99.90;;;;;;4366995;32;19989;-69
2021/12/18 12:50:39;;;;;;;;;;;-1.00;99.90;;;;;;4379220;32;20387;-69
2021/12/18 12:53:08;;;;;;;;;;;-0.90;99.90;;;;;;4379430;32;20027;-68
2021/12/18 12:58:27;;;;;;;;;;;-1.00;99.90;;;;;;3811302;37;20302;-70
2021/12/18 13:01:04;;;;;;;;;;;-1.00;99.90;;;;;;4376778;32;20024;-68
2021/12/18 13:05:27;;;;;;;;;;;-0.90;99.90;;;;;;3857486;37;19953;-69
2021/12/18 13:07:57;;;;;;;;;;;-0.90;99.90;;;;;;4406626;32;20312;-69
2021/12/18 13:10:28;;;;;;;;;;;-0.90;99.90;;;;;;4420385;32;19989;-70
2021/12/18 13:13:05;;;;;;;;;;;-1.00;99.90;;;;;;4406235;32;19977;-67
2021/12/18 13:15:56;;;;;;;;;;;-1.00;99.90;;;;;;4390957;32;19965;-68
2021/12/18 13:18:25;;;;;;;;;;;-0.90;99.90;;;;;;4405195;32;20391;-68
2021/12/18 13:21:01;;;;;;;;;;;-0.90;99.90;;;;;;4403381;32;19992;-68
2021/12/18 13:23:52;;;;;;;;;;;-0.90;99.90;;;;;;4378741;32;19989;-67
2021/12/18 13:26:23;;;;;;;;;;;-1.00;99.90;;;;;;4391113;32;20147;-68
2021/12/18 13:28:49;;;;;;;;;;;-0.90;99.90;;;;;;4403122;32;20048;-69
2021/12/18 13:31:15;;;;;;;;;;;-1.00;99.90;;;;;;4392205;32;20070;-69
2021/12/18 13:33:42;;;;;;;;;;;-1.00;99.90;;;;;;4392523;32;19977;-69
2021/12/18 13:36:08;;;;;;;;;;;-1.00;99.90;;;;;;4391109;32;20415;-69
2021/12/18 13:38:40;;;;;;;;;;;-1.00;99.90;;;;;;4390532;32;20049;-70
2021/12/18 13:41:11;;;;;;;;;;;-1.10;99.90;;;;;;4390344;32;20001;-69
2021/12/18 13:43:38;;;;;;;;;;;-1.00;99.90;;;;;;4390261;32;20037;-69
2021/12/18 13:46:07;;;;;;;;;;;-1.10;99.90;;;;;;4390481;32;19973;-69
2021/12/18 13:48:36;;;;;;;;;;;-1.00;99.90;;;;;;4390325;32;20368;-69
2021/12/18 13:51:09;;;;;;;;;;;-1.10;99.90;;;;;;4389297;32;20001;-70
2021/12/18 13:53:52;;;;;;;;;;;-1.00;99.90;;;;;;4390846;32;20391;-68
2021/12/18 13:56:19;;;;;;;;;;;-1.00;99.90;;;;;;4390765;32;20000;-68
2021/12/18 13:58:48;;;;;;;;;;;-1.10;99.90;;;;;;4378188;32;20400;-68
2021/12/18 14:01:17;;;;;;;;;;;-1.10;99.90;;;;;;4390648;32;19977;-69
2021/12/18 14:03:45;;;;;;;;;;;-1.10;99.90;;;;;;4392266;32;20038;-71
2021/12/18 14:06:19;;;;;;;;;;;-1.10;99.90;;;;;;4409574;32;19977;-70
2021/12/18 14:08:51;;;;;;;;;;;-1.10;99.90;;;;;;4394283;32;19977;-68
2021/12/18 14:11:26;;;;;;;;;;;-1.20;99.90;;;;;;4403260;32;20012;-68
2021/12/18 14:13:58;;;;;;;;;;;-1.10;99.90;;;;;;4402600;32;20056;-70
2021/12/18 14:16:24;;;;;;;;;;;-1.20;99.90;;;;;;4395267;32;20412;-68
2021/12/18 14:18:56;;;;;;;;;;;-1.20;99.90;;;;;;4393896;32;19981;-69
2021/12/18 14:21:34;;;;;;;;;;;-1.20;99.90;;;;;;4367942;32;20384;-68
2021/12/18 14:24:00;;;;;;;;;;;-1.20;99.90;;;;;;4380007;32;19981;-68
2021/12/18 14:26:28;;;;;;;;;;;-1.20;99.90;;;;;;4379618;32;20468;-68
2021/12/18 14:28:57;;;;;;;;;;;-1.20;99.90;;;;;;4379448;32;19981;-67
2021/12/18 14:31:23;;;;;;;;;;;-1.20;99.90;;;;;;4394240;32;19977;-68
2021/12/18 14:33:58;;;;;;;;;;;-1.20;99.90;;;;;;4393763;32;19984;-69
2021/12/18 14:36:47;;;;;;;;;;;-1.20;99.90;;;;;;4367132;32;20042;-69
2021/12/18 14:39:22;;;;;;;;;;;-1.20;99.90;;;;;;4367818;32;20005;-70
2021/12/18 14:41:58;;;;;;;;;;;-1.20;99.90;;;;;;4380627;32;19977;-68
2021/12/18 14:44:26;;;;;;;;;;;-1.30;99.90;;;;;;4379725;32;19997;-67
2021/12/18 14:47:17;;;;;;;;;;;-1.20;99.90;;;;;;4379258;32;20464;-69
2021/12/18 14:49:54;;;;;;;;;;;-1.30;99.90;;;;;;4379460;32;20454;-68
2021/12/18 14:52:21;;;;;;;;;;;-1.30;99.90;;;;;;4392723;32;20021;-69
2021/12/18 14:54:52;;;;;;;;;;;-1.20;99.90;;;;;;4393436;32;19989;-67
2021/12/18 14:57:22;;;;;;;;;;;-1.20;99.90;;;;;;4379135;32;19992;-68
2021/12/18 14:59:48;;;;;;;;;;;-1.20;99.90;;;;;;4393172;32;19981;-68
2021/12/18 15:02:14;;;;;;;;;;;-1.20;99.90;;;;;;4391896;32;20000;-70
2021/12/18 15:04:41;;;;;;;;;;;-1.30;99.90;;;;;;4392850;32;19989;-68
2021/12/18 15:07:25;;;;;;;;;;;-1.20;99.90;;;;;;4367916;32;20456;-69
2021/12/18 15:09:57;;;;;;;;;;;-1.20;99.90;;;;;;4379979;32;20413;-68
2021/12/18 15:12:25;;;;;;;;;;;-1.20;99.90;;;;;;4378897;32;19973;-68
2021/12/18 15:14:51;;;;;;;;;;;-1.20;99.90;;;;;;4366741;32;20032;-69
2021/12/18 15:17:17;;;;;;;;;;;-1.20;99.90;;;;;;4366483;32;19980;-69
2021/12/18 15:19:43;;;;;;;;;;;-1.20;99.90;;;;;;4378831;32;20000;-70
2021/12/18 15:22:12;;;;;;;;;;;-1.20;99.90;;;;;;4392963;32;20052;-69
2021/12/18 15:24:41;;;;;;;;;;;-1.20;99.90;;;;;;4378560;32;20383;-68
2021/12/18 15:27:09;;;;;;;;;;;-1.20;99.90;;;;;;4365299;32;19978;-69